Aérodrome :
LOGIN :

S'inscrire | Disclaimer

   EN    FR    IT 

 










Légende :    VFR   VFR Marginal   IFR   IFR Intensif   IFR Très Intensif
Visi : 
Plafond : 
>= 8 km
>= 3000ft
5 à 8 km
1000 à 3000 ft
1500m à 5 km
500 à 1000 ft
800 à 1500m
200 à 500 ft
< 800m
< 200 ft
Symboles :   Orages  Brouillard  Fortes neiges  Fortes précipitations  Vent > 20 kt
SIGMETs :   Divers  Orages  Givrage  Turbulence  Onde Orograph.  Cendres Volcan.






- Altitude de l'aérodrome : 1247 ft
- Code IATA : PRG


LKPR - Praha Ruzyne

DERNIER METAR :
  • 031730Z 35003KT CAVOK 07/01 Q1016 NOSIG

METARs EXPIRÉS :
  • 031700Z 25006KT 9999 FEW038 08/01 Q1016 NOSIG
  • 031630Z 22005KT 9999 SCT036 08/01 Q1016 NOSIG
  • 031600Z VRB01KT 9999 SCT034 08/00 Q1015 NOSIG
  • 031530Z 26003KT 200V290 9999 FEW040 08/01 Q1015 NOSIG
  • 031500Z VRB02KT 9999 FEW042 08/01 Q1015 NOSIG

TAF TAF LKPR
Valide du 03 à 18h jusqu'au 05 à 00h UTC


031700Z 0318/0500 VRB02KT CAVOK
PROB30
TEMPO 0318/0400 -SHRA SCT020 BKN030
BECMG 0400/0402 5000 BR BKN016
PROB30
TEMPO 0402/0405 3000 BR BKN013
BECMG 0405/0407 9999 SCT033 BKN040
BECMG 0412/0414 02006KT CAVOK



MET'MAP, la Météo Aéronautique d'un coup d'oeil ! - Copyright ORBIFLY Décembre 2007 - Disclaimer

ORBIFLY MET'MAP TEAM :

Programmation & Développement : Alexandra Zaïnal
Sur une idée originale de : Baudouin d'Aumeries
Assistance à la programmation : Marc-Olivier Méhu
Soutien technique & logistique : Manuel Goepfert

Contact : metmap@orbifly.com




SOURCES & CREDITS :

   NOAA